sensor_id;sensor_type;location;lat;lon;timestamp;P1;durP1;ratioP1;P2;durP2;ratioP2
61960;SDS011;47923;42.506;24.192;2023-01-09T00:01:50;60.10;;;37.85;;
61960;SDS011;47923;42.506;24.192;2023-01-09T00:04:16;78.13;;;51.88;;
61960;SDS011;47923;42.506;24.192;2023-01-09T00:06:50;75.85;;;50.55;;
61960;SDS011;47923;42.506;24.192;2023-01-09T00:09:21;67.10;;;44.53;;
61960;SDS011;47923;42.506;24.192;2023-01-09T00:11:48;61.95;;;40.90;;
61960;SDS011;47923;42.506;24.192;2023-01-09T00:14:18;60.25;;;41.42;;
61960;SDS011;47923;42.506;24.192;2023-01-09T00:16:47;54.63;;;35.42;;
61960;SDS011;47923;42.506;24.192;2023-01-09T00:19:13;65.65;;;40.00;;
61960;SDS011;47923;42.506;24.192;2023-01-09T00:21:39;96.05;;;63.72;;
61960;SDS011;47923;42.506;24.192;2023-01-09T00:24:04;87.90;;;56.00;;
61960;SDS011;47923;42.506;24.192;2023-01-09T00:26:30;88.05;;;55.47;;
61960;SDS011;47923;42.506;24.192;2023-01-09T00:28:56;81.30;;;51.67;;
61960;SDS011;47923;42.506;24.192;2023-01-09T00:31:21;62.75;;;39.13;;
61960;SDS011;47923;42.506;24.192;2023-01-09T00:33:48;52.78;;;34.38;;
61960;SDS011;47923;42.506;24.192;2023-01-09T00:36:25;44.70;;;28.48;;
61960;SDS011;47923;42.506;24.192;2023-01-09T00:38:51;42.75;;;27.10;;
61960;SDS011;47923;42.506;24.192;2023-01-09T00:41:20;42.45;;;29.15;;
61960;SDS011;47923;42.506;24.192;2023-01-09T00:44:13;40.30;;;26.08;;
61960;SDS011;47923;42.506;24.192;2023-01-09T00:46:48;58.33;;;35.20;;
61960;SDS011;47923;42.506;24.192;2023-01-09T00:49:20;64.95;;;42.28;;
61960;SDS011;47923;42.506;24.192;2023-01-09T00:51:46;77.53;;;46.03;;
61960;SDS011;47923;42.506;24.192;2023-01-09T00:54:15;63.15;;;43.05;;
61960;SDS011;47923;42.506;24.192;2023-01-09T00:56:42;56.92;;;37.60;;
61960;SDS011;47923;42.506;24.192;2023-01-09T00:59:18;55.97;;;34.03;;
61960;SDS011;47923;42.506;24.192;2023-01-09T01:01:44;59.45;;;36.90;;
61960;SDS011;47923;42.506;24.192;2023-01-09T01:04:09;55.65;;;34.72;;
61960;SDS011;47923;42.506;24.192;2023-01-09T01:06:53;38.85;;;25.70;;
61960;SDS011;47923;42.506;24.192;2023-01-09T01:09:37;36.10;;;25.85;;
61960;SDS011;47923;42.506;24.192;2023-01-09T01:12:03;35.47;;;24.08;;
61960;SDS011;47923;42.506;24.192;2023-01-09T01:14:31;48.10;;;29.52;;
61960;SDS011;47923;42.506;24.192;2023-01-09T01:16:58;65.47;;;44.30;;
61960;SDS011;47923;42.506;24.192;2023-01-09T01:19:33;65.38;;;41.10;;
61960;SDS011;47923;42.506;24.192;2023-01-09T01:21:59;50.38;;;34.72;;
61960;SDS011;47923;42.506;24.192;2023-01-09T01:24:25;46.88;;;30.20;;
61960;SDS011;47923;42.506;24.192;2023-01-09T01:26:50;41.22;;;27.02;;
61960;SDS011;47923;42.506;24.192;2023-01-09T01:29:18;37.08;;;25.30;;
61960;SDS011;47923;42.506;24.192;2023-01-09T01:31:46;39.08;;;28.80;;
61960;SDS011;47923;42.506;24.192;2023-01-09T01:34:11;40.92;;;26.60;;
61960;SDS011;47923;42.506;24.192;2023-01-09T01:36:37;46.42;;;28.35;;
61960;SDS011;47923;42.506;24.192;2023-01-09T01:39:02;53.28;;;34.42;;
61960;SDS011;47923;42.506;24.192;2023-01-09T01:41:30;62.17;;;41.92;;
61960;SDS011;47923;42.506;24.192;2023-01-09T01:43:57;67.13;;;45.42;;
61960;SDS011;47923;42.506;24.192;2023-01-09T01:46:28;67.72;;;50.35;;
61960;SDS011;47923;42.506;24.192;2023-01-09T01:49:06;57.28;;;41.45;;
61960;SDS011;47923;42.506;24.192;2023-01-09T01:51:38;57.28;;;42.85;;
61960;SDS011;47923;42.506;24.192;2023-01-09T01:54:13;47.95;;;35.08;;
61960;SDS011;47923;42.506;24.192;2023-01-09T01:56:55;40.95;;;28.73;;
61960;SDS011;47923;42.506;24.192;2023-01-09T02:01:53;61.92;;;45.70;;
61960;SDS011;47923;42.506;24.192;2023-01-09T02:04:23;75.38;;;54.25;;
61960;SDS011;47923;42.506;24.192;2023-01-09T02:06:52;47.53;;;36.97;;
61960;SDS011;47923;42.506;24.192;2023-01-09T02:09:19;46.05;;;29.90;;
61960;SDS011;47923;42.506;24.192;2023-01-09T02:11:48;39.53;;;28.33;;
61960;SDS011;47923;42.506;24.192;2023-01-09T02:14:20;41.75;;;25.85;;
61960;SDS011;47923;42.506;24.192;2023-01-09T02:22:07;40.90;;;30.67;;
61960;SDS011;47923;42.506;24.192;2023-01-09T02:44:24;54.53;;;41.00;;
61960;SDS011;47923;42.506;24.192;2023-01-09T02:47:01;38.65;;;29.98;;
61960;SDS011;47923;42.506;24.192;2023-01-09T02:49:34;37.45;;;28.45;;
61960;SDS011;47923;42.506;24.192;2023-01-09T03:00:44;32.80;;;23.40;;
61960;SDS011;47923;42.506;24.192;2023-01-09T03:03:11;30.23;;;21.77;;
61960;SDS011;47923;42.506;24.192;2023-01-09T03:05:44;40.92;;;26.65;;
61960;SDS011;47923;42.506;24.192;2023-01-09T03:08:22;47.70;;;31.15;;
61960;SDS011;47923;42.506;24.192;2023-01-09T03:10:53;43.60;;;29.20;;
61960;SDS011;47923;42.506;24.192;2023-01-09T03:13:55;43.92;;;28.67;;
61960;SDS011;47923;42.506;24.192;2023-01-09T03:16:31;43.45;;;28.70;;
61960;SDS011;47923;42.506;24.192;2023-01-09T03:19:01;38.42;;;24.77;;
61960;SDS011;47923;42.506;24.192;2023-01-09T03:21:30;34.15;;;23.52;;
61960;SDS011;47923;42.506;24.192;2023-01-09T03:23:58;46.15;;;31.73;;
61960;SDS011;47923;42.506;24.192;2023-01-09T03:26:25;41.83;;;27.23;;
61960;SDS011;47923;42.506;24.192;2023-01-09T03:29:03;51.28;;;36.47;;
61960;SDS011;47923;42.506;24.192;2023-01-09T03:31:28;65.90;;;43.28;;
61960;SDS011;47923;42.506;24.192;2023-01-09T03:33:54;57.25;;;36.78;;
61960;SDS011;47923;42.506;24.192;2023-01-09T03:36:20;47.65;;;31.38;;
61960;SDS011;47923;42.506;24.192;2023-01-09T03:38:46;52.78;;;34.78;;
61960;SDS011;47923;42.506;24.192;2023-01-09T03:41:12;48.67;;;30.33;;
61960;SDS011;47923;42.506;24.192;2023-01-09T03:43:39;56.47;;;40.83;;
61960;SDS011;47923;42.506;24.192;2023-01-09T03:46:05;57.03;;;39.42;;
61960;SDS011;47923;42.506;24.192;2023-01-09T03:48:33;43.42;;;30.02;;
61960;SDS011;47923;42.506;24.192;2023-01-09T03:50:59;37.35;;;26.15;;
61960;SDS011;47923;42.506;24.192;2023-01-09T03:53:25;43.85;;;27.30;;
61960;SDS011;47923;42.506;24.192;2023-01-09T03:55:52;49.65;;;31.90;;
61960;SDS011;47923;42.506;24.192;2023-01-09T03:58:19;47.70;;;30.90;;
61960;SDS011;47923;42.506;24.192;2023-01-09T04:00:45;46.22;;;29.88;;
61960;SDS011;47923;42.506;24.192;2023-01-09T04:03:13;41.78;;;29.27;;
61960;SDS011;47923;42.506;24.192;2023-01-09T04:05:39;47.55;;;30.38;;
61960;SDS011;47923;42.506;24.192;2023-01-09T04:08:06;37.70;;;24.25;;
61960;SDS011;47923;42.506;24.192;2023-01-09T04:10:34;56.92;;;38.05;;
61960;SDS011;47923;42.506;24.192;2023-01-09T04:13:00;64.28;;;44.35;;
61960;SDS011;47923;42.506;24.192;2023-01-09T04:15:26;68.32;;;44.70;;
61960;SDS011;47923;42.506;24.192;2023-01-09T04:17:51;62.47;;;42.85;;
61960;SDS011;47923;42.506;24.192;2023-01-09T04:20:17;63.85;;;44.00;;
61960;SDS011;47923;42.506;24.192;2023-01-09T04:22:43;62.58;;;41.92;;
61960;SDS011;47923;42.506;24.192;2023-01-09T04:25:11;67.70;;;46.03;;
61960;SDS011;47923;42.506;24.192;2023-01-09T04:27:36;70.20;;;48.00;;
61960;SDS011;47923;42.506;24.192;2023-01-09T04:30:02;68.05;;;45.25;;
61960;SDS011;47923;42.506;24.192;2023-01-09T04:32:28;64.88;;;45.58;;
61960;SDS011;47923;42.506;24.192;2023-01-09T04:34:54;75.05;;;50.10;;
61960;SDS011;47923;42.506;24.192;2023-01-09T04:37:20;84.97;;;58.47;;
61960;SDS011;47923;42.506;24.192;2023-01-09T04:39:47;81.47;;;53.67;;
61960;SDS011;47923;42.506;24.192;2023-01-09T04:42:14;64.40;;;42.53;;
61960;SDS011;47923;42.506;24.192;2023-01-09T04:44:39;71.13;;;45.35;;
61960;SDS011;47923;42.506;24.192;2023-01-09T04:47:05;61.63;;;40.33;;
61960;SDS011;47923;42.506;24.192;2023-01-09T04:49:31;63.42;;;41.53;;
61960;SDS011;47923;42.506;24.192;2023-01-09T04:51:56;56.22;;;39.33;;
61960;SDS011;47923;42.506;24.192;2023-01-09T04:54:24;64.68;;;44.85;;
61960;SDS011;47923;42.506;24.192;2023-01-09T04:56:49;81.65;;;56.38;;
61960;SDS011;47923;42.506;24.192;2023-01-09T04:59:15;79.00;;;50.55;;
61960;SDS011;47923;42.506;24.192;2023-01-09T05:01:40;73.45;;;48.97;;
61960;SDS011;47923;42.506;24.192;2023-01-09T05:04:06;81.13;;;49.22;;
61960;SDS011;47923;42.506;24.192;2023-01-09T05:06:32;73.88;;;44.30;;
61960;SDS011;47923;42.506;24.192;2023-01-09T05:08:58;125.57;;;71.82;;
61960;SDS011;47923;42.506;24.192;2023-01-09T05:11:24;110.93;;;64.05;;
61960;SDS011;47923;42.506;24.192;2023-01-09T05:13:49;118.25;;;64.45;;
61960;SDS011;47923;42.506;24.192;2023-01-09T05:16:15;123.07;;;71.07;;
61960;SDS011;47923;42.506;24.192;2023-01-09T05:18:41;119.55;;;68.82;;
61960;SDS011;47923;42.506;24.192;2023-01-09T05:21:07;123.18;;;81.30;;
61960;SDS011;47923;42.506;24.192;2023-01-09T05:23:32;112.75;;;72.00;;
61960;SDS011;47923;42.506;24.192;2023-01-09T05:25:58;115.63;;;71.28;;
61960;SDS011;47923;42.506;24.192;2023-01-09T05:28:23;103.45;;;60.95;;
61960;SDS011;47923;42.506;24.192;2023-01-09T05:30:49;91.63;;;57.45;;
61960;SDS011;47923;42.506;24.192;2023-01-09T05:33:14;102.03;;;61.30;;
61960;SDS011;47923;42.506;24.192;2023-01-09T05:35:39;96.85;;;62.75;;
61960;SDS011;47923;42.506;24.192;2023-01-09T05:38:05;94.13;;;60.83;;
61960;SDS011;47923;42.506;24.192;2023-01-09T05:40:31;110.40;;;64.78;;
61960;SDS011;47923;42.506;24.192;2023-01-09T05:42:56;115.10;;;72.78;;
61960;SDS011;47923;42.506;24.192;2023-01-09T05:45:21;113.50;;;71.00;;
61960;SDS011;47923;42.506;24.192;2023-01-09T05:47:47;115.65;;;70.07;;
61960;SDS011;47923;42.506;24.192;2023-01-09T05:50:12;94.88;;;59.92;;
61960;SDS011;47923;42.506;24.192;2023-01-09T05:52:39;101.45;;;62.00;;
61960;SDS011;47923;42.506;24.192;2023-01-09T05:55:05;92.35;;;59.05;;
61960;SDS011;47923;42.506;24.192;2023-01-09T05:57:32;82.00;;;51.50;;
61960;SDS011;47923;42.506;24.192;2023-01-09T05:59:57;86.63;;;54.90;;
61960;SDS011;47923;42.506;24.192;2023-01-09T06:02:25;95.93;;;57.25;;
61960;SDS011;47923;42.506;24.192;2023-01-09T06:04:51;81.63;;;53.88;;
61960;SDS011;47923;42.506;24.192;2023-01-09T06:07:19;85.00;;;56.95;;
61960;SDS011;47923;42.506;24.192;2023-01-09T06:09:44;92.65;;;59.63;;
61960;SDS011;47923;42.506;24.192;2023-01-09T06:12:12;81.72;;;53.78;;
61960;SDS011;47923;42.506;24.192;2023-01-09T06:14:38;84.07;;;52.92;;
61960;SDS011;47923;42.506;24.192;2023-01-09T06:17:03;81.75;;;54.50;;
61960;SDS011;47923;42.506;24.192;2023-01-09T06:19:29;91.88;;;57.40;;
61960;SDS011;47923;42.506;24.192;2023-01-09T06:21:54;71.47;;;50.13;;
61960;SDS011;47923;42.506;24.192;2023-01-09T06:24:20;77.28;;;50.38;;
61960;SDS011;47923;42.506;24.192;2023-01-09T06:26:45;85.68;;;55.08;;
61960;SDS011;47923;42.506;24.192;2023-01-09T06:29:11;90.15;;;58.10;;
61960;SDS011;47923;42.506;24.192;2023-01-09T06:31:38;94.43;;;60.85;;
61960;SDS011;47923;42.506;24.192;2023-01-09T06:34:04;88.95;;;54.90;;
61960;SDS011;47923;42.506;24.192;2023-01-09T06:36:29;87.80;;;55.28;;
61960;SDS011;47923;42.506;24.192;2023-01-09T06:38:54;86.60;;;55.22;;
61960;SDS011;47923;42.506;24.192;2023-01-09T06:41:20;91.85;;;54.88;;
61960;SDS011;47923;42.506;24.192;2023-01-09T06:43:45;93.03;;;59.90;;
61960;SDS011;47923;42.506;24.192;2023-01-09T06:46:11;86.53;;;54.15;;
61960;SDS011;47923;42.506;24.192;2023-01-09T06:48:36;135.30;;;87.50;;
61960;SDS011;47923;42.506;24.192;2023-01-09T06:51:02;134.30;;;87.97;;
61960;SDS011;47923;42.506;24.192;2023-01-09T06:53:27;151.43;;;98.97;;
61960;SDS011;47923;42.506;24.192;2023-01-09T06:55:53;138.63;;;93.28;;
61960;SDS011;47923;42.506;24.192;2023-01-09T06:58:18;124.85;;;85.60;;
61960;SDS011;47923;42.506;24.192;2023-01-09T07:00:44;144.45;;;93.82;;
61960;SDS011;47923;42.506;24.192;2023-01-09T07:03:10;142.48;;;93.22;;
61960;SDS011;47923;42.506;24.192;2023-01-09T07:05:39;137.88;;;90.93;;
61960;SDS011;47923;42.506;24.192;2023-01-09T07:08:06;147.65;;;97.78;;
61960;SDS011;47923;42.506;24.192;2023-01-09T07:10:32;133.70;;;89.97;;
61960;SDS011;47923;42.506;24.192;2023-01-09T07:12:58;131.00;;;89.07;;
61960;SDS011;47923;42.506;24.192;2023-01-09T07:15:23;137.68;;;93.35;;
61960;SDS011;47923;42.506;24.192;2023-01-09T07:17:52;138.43;;;90.32;;
61960;SDS011;47923;42.506;24.192;2023-01-09T07:20:18;128.50;;;83.30;;
61960;SDS011;47923;42.506;24.192;2023-01-09T07:22:44;105.05;;;72.32;;
61960;SDS011;47923;42.506;24.192;2023-01-09T07:25:11;114.65;;;82.50;;
61960;SDS011;47923;42.506;24.192;2023-01-09T07:27:36;127.60;;;83.45;;
61960;SDS011;47923;42.506;24.192;2023-01-09T07:30:03;126.75;;;82.03;;
61960;SDS011;47923;42.506;24.192;2023-01-09T07:32:29;144.82;;;93.55;;
61960;SDS011;47923;42.506;24.192;2023-01-09T07:34:55;163.27;;;100.15;;
61960;SDS011;47923;42.506;24.192;2023-01-09T07:37:22;188.70;;;122.47;;
61960;SDS011;47923;42.506;24.192;2023-01-09T07:39:47;148.90;;;99.78;;
61960;SDS011;47923;42.506;24.192;2023-01-09T07:42:12;188.93;;;116.20;;
61960;SDS011;47923;42.506;24.192;2023-01-09T07:44:38;148.13;;;95.50;;
61960;SDS011;47923;42.506;24.192;2023-01-09T07:47:03;166.55;;;104.13;;
61960;SDS011;47923;42.506;24.192;2023-01-09T07:49:29;162.88;;;101.57;;
61960;SDS011;47923;42.506;24.192;2023-01-09T07:51:54;129.20;;;85.88;;
61960;SDS011;47923;42.506;24.192;2023-01-09T07:54:20;120.78;;;80.70;;
61960;SDS011;47923;42.506;24.192;2023-01-09T07:56:45;125.75;;;82.20;;
61960;SDS011;47923;42.506;24.192;2023-01-09T07:59:11;129.50;;;84.93;;
61960;SDS011;47923;42.506;24.192;2023-01-09T08:01:37;136.88;;;87.68;;
61960;SDS011;47923;42.506;24.192;2023-01-09T08:04:02;120.72;;;83.68;;
61960;SDS011;47923;42.506;24.192;2023-01-09T08:06:28;126.10;;;84.03;;
61960;SDS011;47923;42.506;24.192;2023-01-09T08:08:55;124.93;;;85.10;;
61960;SDS011;47923;42.506;24.192;2023-01-09T08:11:21;115.63;;;80.38;;
61960;SDS011;47923;42.506;24.192;2023-01-09T08:13:48;111.65;;;74.78;;
61960;SDS011;47923;42.506;24.192;2023-01-09T08:16:13;128.35;;;78.15;;
61960;SDS011;47923;42.506;24.192;2023-01-09T08:18:39;129.15;;;85.97;;
61960;SDS011;47923;42.506;24.192;2023-01-09T08:21:04;120.43;;;82.90;;
61960;SDS011;47923;42.506;24.192;2023-01-09T08:23:30;123.15;;;81.97;;
61960;SDS011;47923;42.506;24.192;2023-01-09T08:25:55;139.95;;;92.60;;
61960;SDS011;47923;42.506;24.192;2023-01-09T08:28:21;144.52;;;96.22;;
61960;SDS011;47923;42.506;24.192;2023-01-09T08:30:46;160.20;;;108.60;;
61960;SDS011;47923;42.506;24.192;2023-01-09T08:33:12;176.15;;;110.72;;
61960;SDS011;47923;42.506;24.192;2023-01-09T08:35:37;170.88;;;114.85;;
61960;SDS011;47923;42.506;24.192;2023-01-09T08:38:03;144.10;;;96.32;;
61960;SDS011;47923;42.506;24.192;2023-01-09T08:40:28;148.95;;;99.65;;
61960;SDS011;47923;42.506;24.192;2023-01-09T08:42:54;189.05;;;125.30;;
61960;SDS011;47923;42.506;24.192;2023-01-09T08:45:38;166.90;;;112.88;;
61960;SDS011;47923;42.506;24.192;2023-01-09T08:48:22;179.60;;;120.22;;
61960;SDS011;47923;42.506;24.192;2023-01-09T08:50:47;170.35;;;115.40;;
61960;SDS011;47923;42.506;24.192;2023-01-09T08:53:13;168.40;;;113.28;;
61960;SDS011;47923;42.506;24.192;2023-01-09T08:55:39;175.10;;;113.68;;
61960;SDS011;47923;42.506;24.192;2023-01-09T08:58:05;167.85;;;111.72;;
61960;SDS011;47923;42.506;24.192;2023-01-09T09:00:31;169.52;;;112.10;;
61960;SDS011;47923;42.506;24.192;2023-01-09T09:02:57;179.80;;;116.70;;
61960;SDS011;47923;42.506;24.192;2023-01-09T09:05:24;150.98;;;98.22;;
61960;SDS011;47923;42.506;24.192;2023-01-09T09:07:52;124.25;;;83.82;;
61960;SDS011;47923;42.506;24.192;2023-01-09T09:10:19;115.22;;;74.95;;
61960;SDS011;47923;42.506;24.192;2023-01-09T09:12:50;99.05;;;61.70;;
61960;SDS011;47923;42.506;24.192;2023-01-09T09:15:17;85.20;;;56.42;;
61960;SDS011;47923;42.506;24.192;2023-01-09T09:17:59;64.80;;;42.25;;
61960;SDS011;47923;42.506;24.192;2023-01-09T09:20:29;61.00;;;41.80;;
61960;SDS011;47923;42.506;24.192;2023-01-09T09:22:56;76.65;;;50.58;;
61960;SDS011;47923;42.506;24.192;2023-01-09T09:25:23;70.75;;;46.55;;
61960;SDS011;47923;42.506;24.192;2023-01-09T09:27:48;62.53;;;45.60;;
61960;SDS011;47923;42.506;24.192;2023-01-09T09:30:15;63.80;;;41.60;;
61960;SDS011;47923;42.506;24.192;2023-01-09T09:32:42;65.15;;;42.58;;
61960;SDS011;47923;42.506;24.192;2023-01-09T09:35:08;63.17;;;40.67;;
61960;SDS011;47923;42.506;24.192;2023-01-09T09:37:34;56.10;;;39.60;;
61960;SDS011;47923;42.506;24.192;2023-01-09T09:40:00;57.92;;;37.72;;
61960;SDS011;47923;42.506;24.192;2023-01-09T09:45:25;60.13;;;39.33;;
61960;SDS011;47923;42.506;24.192;2023-01-09T09:53:19;66.50;;;41.92;;
61960;SDS011;47923;42.506;24.192;2023-01-09T09:55:50;59.88;;;39.67;;
61960;SDS011;47923;42.506;24.192;2023-01-09T10:01:02;76.93;;;50.60;;
61960;SDS011;47923;42.506;24.192;2023-01-09T10:06:46;70.00;;;41.63;;
61960;SDS011;47923;42.506;24.192;2023-01-09T10:08:59;62.00;;;37.63;;
61960;SDS011;47923;42.506;24.192;2023-01-09T10:11:51;85.13;;;56.83;;
61960;SDS011;47923;42.506;24.192;2023-01-09T10:14:22;82.10;;;49.85;;
61960;SDS011;47923;42.506;24.192;2023-01-09T10:16:51;89.15;;;56.67;;
61960;SDS011;47923;42.506;24.192;2023-01-09T10:24:50;89.90;;;54.53;;
61960;SDS011;47923;42.506;24.192;2023-01-09T10:32:57;66.50;;;40.50;;
61960;SDS011;47923;42.506;24.192;2023-01-09T10:38:13;57.58;;;33.80;;
61960;SDS011;47923;42.506;24.192;2023-01-09T10:40:48;62.43;;;36.17;;
61960;SDS011;47923;42.506;24.192;2023-01-09T10:43:26;71.50;;;44.05;;
61960;SDS011;47923;42.506;24.192;2023-01-09T10:46:03;87.18;;;57.63;;
61960;SDS011;47923;42.506;24.192;2023-01-09T10:48:34;65.93;;;42.22;;
61960;SDS011;47923;42.506;24.192;2023-01-09T10:51:03;57.63;;;36.22;;
61960;SDS011;47923;42.506;24.192;2023-01-09T10:53:41;61.50;;;38.63;;
61960;SDS011;47923;42.506;24.192;2023-01-09T10:56:26;57.88;;;36.72;;
61960;SDS011;47923;42.506;24.192;2023-01-09T10:58:58;59.80;;;37.05;;
61960;SDS011;47923;42.506;24.192;2023-01-09T11:01:27;64.72;;;40.38;;
61960;SDS011;47923;42.506;24.192;2023-01-09T11:03:56;79.97;;;45.97;;
61960;SDS011;47923;42.506;24.192;2023-01-09T11:06:36;43.13;;;27.65;;
61960;SDS011;47923;42.506;24.192;2023-01-09T11:09:08;46.88;;;28.38;;
61960;SDS011;47923;42.506;24.192;2023-01-09T11:11:35;44.67;;;28.48;;
61960;SDS011;47923;42.506;24.192;2023-01-09T11:14:05;52.85;;;32.90;;
61960;SDS011;47923;42.506;24.192;2023-01-09T11:16:44;54.33;;;34.15;;
61960;SDS011;47923;42.506;24.192;2023-01-09T11:19:19;45.17;;;25.73;;
61960;SDS011;47923;42.506;24.192;2023-01-09T11:21:45;52.05;;;31.63;;
61960;SDS011;47923;42.506;24.192;2023-01-09T11:26:43;54.08;;;28.73;;
61960;SDS011;47923;42.506;24.192;2023-01-09T11:29:11;39.22;;;23.40;;
61960;SDS011;47923;42.506;24.192;2023-01-09T11:31:39;42.75;;;24.00;;
61960;SDS011;47923;42.506;24.192;2023-01-09T11:34:15;49.85;;;28.02;;
61960;SDS011;47923;42.506;24.192;2023-01-09T11:36:42;52.70;;;28.17;;
61960;SDS011;47923;42.506;24.192;2023-01-09T11:39:30;46.38;;;27.35;;
61960;SDS011;47923;42.506;24.192;2023-01-09T11:41:59;54.50;;;28.77;;
61960;SDS011;47923;42.506;24.192;2023-01-09T11:44:27;43.22;;;23.48;;
61960;SDS011;47923;42.506;24.192;2023-01-09T11:46:55;40.05;;;22.98;;
61960;SDS011;47923;42.506;24.192;2023-01-09T11:49:21;36.38;;;18.98;;
61960;SDS011;47923;42.506;24.192;2023-01-09T11:54:53;36.17;;;19.35;;
61960;SDS011;47923;42.506;24.192;2023-01-09T11:57:23;46.17;;;25.48;;
61960;SDS011;47923;42.506;24.192;2023-01-09T11:59:49;41.85;;;22.25;;
61960;SDS011;47923;42.506;24.192;2023-01-09T12:02:24;37.58;;;23.00;;
61960;SDS011;47923;42.506;24.192;2023-01-09T12:10:58;52.72;;;30.15;;
61960;SDS011;47923;42.506;24.192;2023-01-09T12:22:10;61.40;;;32.85;;
61960;SDS011;47923;42.506;24.192;2023-01-09T12:24:54;41.28;;;23.63;;
61960;SDS011;47923;42.506;24.192;2023-01-09T12:27:45;33.10;;;19.52;;
61960;SDS011;47923;42.506;24.192;2023-01-09T12:36:18;32.38;;;19.08;;
61960;SDS011;47923;42.506;24.192;2023-01-09T12:39:05;39.72;;;25.52;;
61960;SDS011;47923;42.506;24.192;2023-01-09T12:44:38;33.20;;;17.42;;
61960;SDS011;47923;42.506;24.192;2023-01-09T12:47:31;37.40;;;20.45;;
61960;SDS011;47923;42.506;24.192;2023-01-09T12:52:33;21.02;;;11.90;;
61960;SDS011;47923;42.506;24.192;2023-01-09T12:55:25;25.55;;;14.63;;
61960;SDS011;47923;42.506;24.192;2023-01-09T12:57:57;26.70;;;16.42;;
61960;SDS011;47923;42.506;24.192;2023-01-09T13:00:31;19.27;;;11.60;;
61960;SDS011;47923;42.506;24.192;2023-01-09T13:06:00;35.00;;;19.00;;
61960;SDS011;47923;42.506;24.192;2023-01-09T13:08:30;39.70;;;22.55;;
61960;SDS011;47923;42.506;24.192;2023-01-09T13:12:01;36.15;;;20.65;;
61960;SDS011;47923;42.506;24.192;2023-01-09T13:16:43;38.10;;;23.80;;
61960;SDS011;47923;42.506;24.192;2023-01-09T13:21:45;23.73;;;14.77;;
61960;SDS011;47923;42.506;24.192;2023-01-09T13:26:49;50.60;;;30.35;;
61960;SDS011;47923;42.506;24.192;2023-01-09T13:29:23;30.52;;;17.05;;
61960;SDS011;47923;42.506;24.192;2023-01-09T13:31:59;25.75;;;14.35;;
61960;SDS011;47923;42.506;24.192;2023-01-09T13:36:55;33.55;;;17.73;;
61960;SDS011;47923;42.506;24.192;2023-01-09T13:39:26;34.53;;;22.08;;
61960;SDS011;47923;42.506;24.192;2023-01-09T13:41:58;39.15;;;23.75;;
61960;SDS011;47923;42.506;24.192;2023-01-09T13:45:19;35.53;;;18.58;;
61960;SDS011;47923;42.506;24.192;2023-01-09T13:50:43;38.75;;;21.40;;
61960;SDS011;47923;42.506;24.192;2023-01-09T13:53:55;44.88;;;33.60;;
61960;SDS011;47923;42.506;24.192;2023-01-09T13:58:29;45.33;;;24.48;;
61960;SDS011;47923;42.506;24.192;2023-01-09T14:06:34;24.30;;;13.38;;
61960;SDS011;47923;42.506;24.192;2023-01-09T14:09:17;30.83;;;18.95;;
61960;SDS011;47923;42.506;24.192;2023-01-09T14:11:45;34.28;;;20.85;;
61960;SDS011;47923;42.506;24.192;2023-01-09T14:14:28;22.80;;;12.73;;
61960;SDS011;47923;42.506;24.192;2023-01-09T14:16:57;25.67;;;17.23;;
61960;SDS011;47923;42.506;24.192;2023-01-09T14:19:37;33.97;;;20.92;;
61960;SDS011;47923;42.506;24.192;2023-01-09T14:22:04;37.72;;;22.27;;
61960;SDS011;47923;42.506;24.192;2023-01-09T14:24:32;31.70;;;18.30;;
61960;SDS011;47923;42.506;24.192;2023-01-09T14:30:15;35.05;;;21.52;;
61960;SDS011;47923;42.506;24.192;2023-01-09T14:32:57;33.90;;;22.25;;
61960;SDS011;47923;42.506;24.192;2023-01-09T14:41:15;27.33;;;15.38;;
61960;SDS011;47923;42.506;24.192;2023-01-09T14:46:32;39.95;;;22.52;;
61960;SDS011;47923;42.506;24.192;2023-01-09T14:49:04;30.65;;;18.33;;
61960;SDS011;47923;42.506;24.192;2023-01-09T14:51:37;37.33;;;23.23;;
61960;SDS011;47923;42.506;24.192;2023-01-09T14:54:30;68.40;;;39.10;;
61960;SDS011;47923;42.506;24.192;2023-01-09T14:57:00;49.55;;;24.85;;
61960;SDS011;47923;42.506;24.192;2023-01-09T14:59:26;36.58;;;19.38;;
61960;SDS011;47923;42.506;24.192;2023-01-09T15:01:52;50.97;;;29.25;;
61960;SDS011;47923;42.506;24.192;2023-01-09T15:04:39;85.32;;;42.83;;
61960;SDS011;47923;42.506;24.192;2023-01-09T15:07:05;104.43;;;55.83;;
61960;SDS011;47923;42.506;24.192;2023-01-09T15:09:42;69.95;;;39.72;;
61960;SDS011;47923;42.506;24.192;2023-01-09T15:12:12;61.97;;;32.72;;
61960;SDS011;47923;42.506;24.192;2023-01-09T15:14:45;64.22;;;39.25;;
61960;SDS011;47923;42.506;24.192;2023-01-09T15:17:17;53.70;;;31.17;;
61960;SDS011;47923;42.506;24.192;2023-01-09T15:19:45;72.22;;;39.78;;
61960;SDS011;47923;42.506;24.192;2023-01-09T15:22:26;59.90;;;32.30;;
61960;SDS011;47923;42.506;24.192;2023-01-09T15:24:52;58.15;;;33.35;;
61960;SDS011;47923;42.506;24.192;2023-01-09T15:27:18;66.43;;;35.22;;
61960;SDS011;47923;42.506;24.192;2023-01-09T15:29:46;68.07;;;35.42;;
61960;SDS011;47923;42.506;24.192;2023-01-09T15:32:16;73.13;;;38.85;;
61960;SDS011;47923;42.506;24.192;2023-01-09T15:34:45;60.90;;;34.08;;
61960;SDS011;47923;42.506;24.192;2023-01-09T15:39:52;68.20;;;32.97;;
61960;SDS011;47923;42.506;24.192;2023-01-09T15:42:23;74.30;;;36.03;;
61960;SDS011;47923;42.506;24.192;2023-01-09T15:45:19;65.90;;;31.80;;
61960;SDS011;47923;42.506;24.192;2023-01-09T15:47:48;67.25;;;32.40;;
61960;SDS011;47923;42.506;24.192;2023-01-09T15:50:15;75.78;;;36.90;;
61960;SDS011;47923;42.506;24.192;2023-01-09T15:52:42;78.25;;;34.85;;
61960;SDS011;47923;42.506;24.192;2023-01-09T15:55:41;72.13;;;37.03;;
61960;SDS011;47923;42.506;24.192;2023-01-09T15:58:00;80.18;;;36.53;;
61960;SDS011;47923;42.506;24.192;2023-01-09T16:02:54;80.55;;;36.05;;
61960;SDS011;47923;42.506;24.192;2023-01-09T16:05:42;95.22;;;39.88;;
61960;SDS011;47923;42.506;24.192;2023-01-09T16:08:20;93.93;;;43.70;;
61960;SDS011;47923;42.506;24.192;2023-01-09T16:10:49;85.75;;;36.47;;
61960;SDS011;47923;42.506;24.192;2023-01-09T16:13:17;83.57;;;37.72;;
61960;SDS011;47923;42.506;24.192;2023-01-09T16:15:45;79.88;;;37.00;;
61960;SDS011;47923;42.506;24.192;2023-01-09T16:20:42;85.03;;;37.63;;
61960;SDS011;47923;42.506;24.192;2023-01-09T16:25:46;93.68;;;38.78;;
61960;SDS011;47923;42.506;24.192;2023-01-09T16:33:25;112.65;;;48.75;;
61960;SDS011;47923;42.506;24.192;2023-01-09T16:35:51;119.30;;;43.50;;
61960;SDS011;47923;42.506;24.192;2023-01-09T16:38:18;149.30;;;60.78;;
61960;SDS011;47923;42.506;24.192;2023-01-09T16:41:18;161.45;;;50.30;;
61960;SDS011;47923;42.506;24.192;2023-01-09T16:44:01;154.95;;;43.67;;
61960;SDS011;47923;42.506;24.192;2023-01-09T16:46:30;162.20;;;37.15;;
61960;SDS011;47923;42.506;24.192;2023-01-09T16:48:58;69.88;;;31.38;;